Time;durP1;ratioP1;P1;durP2;ratioP2;P2;SDS_P1;SDS_P2;PMS_P1;PMS_P2;Temp;Humidity;BMP_temperature;BMP_pressure;BME280_temperature;BME280_humidity;BME280_pressure;Samples;Min_cycle;Max_cycle;Signal;HPM_P1;HPM_P2
2023/04/10 00:00:55;;;;;;;;;43.80;37.20;;;;;5.10;64.34;100566.94;5095527;28;8868;-58
2023/04/10 00:03:24;;;;;;;;;26.40;25.80;;;;;5.08;64.24;100556.44;5095330;28;8927;-58
2023/04/10 00:05:53;;;;;;;;;32.00;30.40;;;;;5.10;64.50;100561.66;5095309;28;8814;-59
2023/04/10 00:08:21;;;;;;;;;35.60;30.40;;;;;5.11;64.43;100558.09;5095581;28;9500;-58
2023/04/10 00:10:49;;;;;;;;;43.60;39.00;;;;;5.12;64.49;100555.38;5095143;28;8810;-58
2023/04/10 00:13:17;;;;;;;;;43.80;41.00;;;;;5.12;64.69;100551.88;5095047;28;8846;-58
2023/04/10 00:15:45;;;;;;;;;28.60;24.40;;;;;5.12;64.22;100546.59;5095282;28;8916;-58
2023/04/10 00:18:13;;;;;;;;;41.80;40.00;;;;;5.14;64.77;100542.09;5095684;28;8868;-58
2023/04/10 00:20:40;;;;;;;;;44.40;38.40;;;;;5.13;64.69;100530.69;5095906;28;8818;-58
2023/04/10 00:23:08;;;;;;;;;39.00;35.20;;;;;5.12;64.26;100533.41;5095750;28;8821;-58
2023/04/10 00:25:35;;;;;;;;;51.20;45.00;;;;;5.12;64.71;100533.41;5095440;28;8815;-58
2023/04/10 00:28:04;;;;;;;;;47.40;43.20;;;;;5.10;64.58;100532.63;5095514;28;8845;-58
2023/04/10 00:30:31;;;;;;;;;57.40;45.60;;;;;5.09;64.57;100529.13;5095472;28;8842;-59
2023/04/10 00:32:59;;;;;;;;;47.40;44.40;;;;;5.10;64.62;100533.47;5095026;28;8848;-58
2023/04/10 00:35:27;;;;;;;;;38.80;32.20;;;;;5.09;64.37;100523.84;5095141;28;8842;-58
2023/04/10 00:37:56;;;;;;;;;29.60;26.60;;;;;5.09;64.71;100526.47;5095969;28;8853;-58
2023/04/10 00:40:24;;;;;;;;;42.40;39.00;;;;;5.07;64.60;100516.91;5098529;28;8825;-58
2023/04/10 00:42:52;;;;;;;;;49.60;44.60;;;;;5.06;64.54;100523.13;5098946;28;8810;-58
2023/04/10 00:45:20;;;;;;;;;46.00;40.60;;;;;5.03;65.04;100521.50;5098306;28;8834;-59
2023/04/10 00:47:47;;;;;;;;;53.40;48.60;;;;;5.02;64.56;100516.31;5098548;28;8885;-58
2023/04/10 00:50:15;;;;;;;;;39.00;36.60;;;;;4.99;64.93;100514.66;5098627;28;8818;-59
2023/04/10 00:52:43;;;;;;;;;37.60;34.80;;;;;4.99;64.83;100513.78;5098607;28;8847;-58
2023/04/10 00:55:11;;;;;;;;;51.40;45.00;;;;;5.01;64.47;100511.97;5098747;28;8814;-58
2023/04/10 00:57:39;;;;;;;;;41.40;37.80;;;;;5.03;65.00;100512.72;5098450;28;8845;-58
2023/04/10 01:00:06;;;;;;;;;43.60;38.80;;;;;5.04;64.70;100493.31;5098785;28;8834;-58
2023/04/10 01:02:34;;;;;;;;;37.00;34.40;;;;;5.05;65.17;100502.94;5098282;28;8822;-58
2023/04/10 01:05:02;;;;;;;;;34.80;30.80;;;;;5.04;64.22;100507.38;5098704;28;8872;-58
2023/04/10 01:07:30;;;;;;;;;38.40;32.80;;;;;5.02;64.92;100495.19;5098640;28;8840;-58
2023/04/10 01:09:57;;;;;;;;;45.40;42.40;;;;;5.00;64.99;100492.63;5098342;28;8834;-58
2023/04/10 01:12:25;;;;;;;;;36.00;30.40;;;;;4.97;64.94;100491.91;5098236;28;8826;-59
2023/04/10 01:14:53;;;;;;;;;41.40;36.40;;;;;4.92;64.57;100505.31;5098191;28;9494;-58
2023/04/10 01:17:21;;;;;;;;;36.20;32.00;;;;;4.86;65.00;100500.34;5098766;28;8833;-58
2023/04/10 01:19:49;;;;;;;;;44.60;40.00;;;;;4.80;65.02;100494.50;5098345;28;8822;-58
2023/04/10 01:22:17;;;;;;;;;51.60;46.00;;;;;4.76;65.18;100499.06;5098199;28;9692;-58
2023/04/10 01:24:45;;;;;;;;;35.40;32.40;;;;;4.73;65.46;100499.19;5098434;28;8810;-58
2023/04/10 01:27:12;;;;;;;;;41.00;30.80;;;;;4.71;65.15;100487.88;5097915;28;8830;-58
2023/04/10 01:29:40;;;;;;;;;48.60;44.40;;;;;4.71;65.27;100489.69;5098211;28;8814;-58
2023/04/10 01:32:10;;;;;;;;;45.60;38.40;;;;;4.70;65.54;100488.81;5097808;28;8838;-58
2023/04/10 01:34:38;;;;;;;;;46.00;42.40;;;;;4.69;65.18;100486.22;5097610;28;8829;-58
2023/04/10 01:37:05;;;;;;;;;44.40;42.20;;;;;4.70;65.18;100487.94;5098009;28;8840;-58
2023/04/10 01:39:35;;;;;;;;;35.20;32.60;;;;;4.70;65.83;100488.81;5097943;28;8818;-58
2023/04/10 01:42:04;;;;;;;;;39.20;35.20;;;;;4.70;65.34;100486.16;5098374;28;8838;-58
2023/04/10 01:44:32;;;;;;;;;45.60;42.40;;;;;4.71;65.99;100484.41;5097741;28;8872;-61
2023/04/10 01:47:00;;;;;;;;;49.80;47.20;;;;;4.72;65.29;100494.00;5097735;28;8957;-59
2023/04/10 01:49:27;;;;;;;;;58.60;48.40;;;;;4.74;65.72;100494.78;5097460;28;8830;-60
2023/04/10 01:51:57;;;;;;;;;51.40;47.00;;;;;4.75;65.84;100488.59;5097439;28;8836;-60
2023/04/10 01:54:25;;;;;;;;;57.80;48.00;;;;;4.79;64.80;100482.25;5097465;28;8834;-58
2023/04/10 01:56:53;;;;;;;;;53.40;45.00;;;;;4.83;65.66;100479.38;5097319;28;8826;-58
2023/04/10 01:59:20;;;;;;;;;54.00;47.20;;;;;4.84;64.98;100465.28;5096334;28;8825;-60
2023/04/10 02:01:48;;;;;;;;;53.60;48.40;;;;;4.86;65.12;100467.84;5097110;28;8864;-59
2023/04/10 02:04:16;;;;;;;;;60.20;51.00;;;;;4.83;64.92;100453.00;5096835;28;8877;-58
2023/04/10 02:06:44;;;;;;;;;59.00;49.00;;;;;4.83;65.27;100450.38;5097379;28;8906;-59
2023/04/10 02:09:11;;;;;;;;;55.00;48.80;;;;;4.80;65.60;100447.84;5097089;28;8829;-59
2023/04/10 02:11:39;;;;;;;;;46.40;41.80;;;;;4.78;65.57;100448.88;5097410;28;8837;-59
2023/04/10 02:14:07;;;;;;;;;46.00;40.80;;;;;4.75;65.43;100451.66;5096982;28;8825;-58
2023/04/10 02:16:34;;;;;;;;;52.60;46.40;;;;;4.72;65.90;100444.75;5097133;28;8822;-58
2023/04/10 02:19:02;;;;;;;;;63.60;50.80;;;;;4.69;65.26;100447.53;5097136;28;8840;-59
2023/04/10 02:21:30;;;;;;;;;55.60;47.20;;;;;4.66;65.50;100441.56;5097064;28;8882;-60
2023/04/10 02:23:58;;;;;;;;;63.20;52.80;;;;;4.65;65.71;100451.22;5096913;28;8838;-60
2023/04/10 02:26:26;;;;;;;;;70.20;58.20;;;;;4.63;66.19;100446.97;5096790;28;8850;-59
2023/04/10 02:28:54;;;;;;;;;55.80;48.20;;;;;4.62;66.06;100450.53;5096378;28;8928;-61
2023/04/10 02:31:21;;;;;;;;;52.20;45.60;;;;;4.61;66.29;100447.06;5097031;28;8840;-58
2023/04/10 02:33:49;;;;;;;;;38.60;33.20;;;;;4.62;65.45;100446.13;5096784;28;8822;-61
2023/04/10 02:36:17;;;;;;;;;44.60;37.80;;;;;4.63;65.55;100444.34;5096702;28;8834;-59
2023/04/10 02:38:45;;;;;;;;;44.20;41.80;;;;;4.67;65.41;100452.03;5096796;28;8822;-59
2023/04/10 02:41:12;;;;;;;;;42.80;38.00;;;;;4.71;65.41;100436.91;5096861;28;8825;-58
2023/04/10 02:43:41;;;;;;;;;37.40;33.60;;;;;4.75;65.71;100439.34;5097829;28;8956;-58
2023/04/10 02:46:08;;;;;;;;;35.00;31.40;;;;;4.82;65.61;100434.59;5096553;28;8853;-58
2023/04/10 02:48:37;;;;;;;;;38.40;36.20;;;;;4.87;65.65;100427.34;5096469;28;8837;-58
2023/04/10 02:51:05;;;;;;;;;45.40;43.20;;;;;4.91;65.07;100424.47;5096728;28;8817;-60
2023/04/10 02:53:33;;;;;;;;;49.80;44.80;;;;;4.93;65.05;100430.50;5096275;28;8837;-60
2023/04/10 02:56:01;;;;;;;;;46.80;41.60;;;;;4.92;65.05;100427.94;5096774;28;8864;-61
2023/04/10 02:58:30;;;;;;;;;44.00;40.20;;;;;4.91;65.36;100428.88;5096011;28;8819;-58
2023/04/10 03:00:57;;;;;;;;;40.40;38.20;;;;;4.90;65.56;100421.91;5095837;28;8834;-58
2023/04/10 03:03:25;;;;;;;;;44.60;42.20;;;;;4.87;65.20;100427.34;5096302;28;8806;-60
2023/04/10 03:05:53;;;;;;;;;42.40;35.80;;;;;4.84;65.54;100433.59;5096681;28;8955;-58
2023/04/10 03:08:21;;;;;;;;;44.80;42.20;;;;;4.83;65.98;100425.75;5096528;28;8818;-58
2023/04/10 03:10:49;;;;;;;;;42.80;39.60;;;;;4.82;65.50;100426.69;5096376;28;8858;-58
2023/04/10 03:13:17;;;;;;;;;37.60;31.80;;;;;4.80;65.68;100426.75;5095951;28;8814;-58
2023/04/10 03:15:45;;;;;;;;;48.00;40.00;;;;;4.79;66.08;100421.56;5095935;28;8944;-59
2023/04/10 03:18:12;;;;;;;;;52.00;45.20;;;;;4.80;65.56;100418.00;5096116;28;8894;-58
2023/04/10 03:20:40;;;;;;;;;45.40;43.00;;;;;4.83;66.10;100424.00;5096144;28;8948;-59
2023/04/10 03:23:11;;;;;;;;;43.80;39.40;;;;;4.84;66.06;100416.91;5096231;28;8949;-59
2023/04/10 03:25:40;;;;;;;;;44.80;38.80;;;;;4.84;65.87;100419.56;5095930;28;8811;-58
2023/04/10 03:28:07;;;;;;;;;40.00;36.20;;;;;4.82;65.87;100411.72;5095855;28;8875;-58
2023/04/10 03:30:35;;;;;;;;;38.40;33.80;;;;;4.82;65.40;100411.72;5096086;28;8872;-58
2023/04/10 03:33:03;;;;;;;;;45.00;38.40;;;;;4.85;65.42;100403.66;5096189;28;8846;-58
2023/04/10 03:35:31;;;;;;;;;41.40;38.60;;;;;4.86;65.55;100400.09;5095990;28;8814;-57
2023/04/10 03:37:59;;;;;;;;;51.80;47.20;;;;;4.85;66.10;100403.66;5095882;28;8853;-58
2023/04/10 03:40:26;;;;;;;;;51.60;48.00;;;;;4.85;65.91;100384.31;5095882;28;8818;-58
2023/04/10 03:42:54;;;;;;;;;46.80;42.80;;;;;4.84;66.09;100383.50;5096206;28;8857;-60
2023/04/10 03:45:22;;;;;;;;;47.40;42.80;;;;;4.86;66.06;100389.53;5095926;28;8831;-60
2023/04/10 03:47:50;;;;;;;;;31.60;29.40;;;;;4.86;65.33;100380.78;5096264;28;9500;-60
2023/04/10 03:50:18;;;;;;;;;51.60;42.60;;;;;4.87;66.16;100379.84;5095733;28;8909;-59
2023/04/10 03:52:45;;;;;;;;;46.40;43.40;;;;;4.87;65.68;100379.84;5096103;28;8814;-58
2023/04/10 03:55:17;;;;;;;;;31.20;26.80;;;;;4.89;65.42;100375.34;5095487;28;8876;-60
2023/04/10 03:57:45;;;;;;;;;34.00;32.60;;;;;4.88;65.68;100382.38;5095711;28;8823;-61
2023/04/10 04:00:13;;;;;;;;;34.60;31.60;;;;;4.87;66.02;100378.03;5095292;28;8842;-60
2023/04/10 04:02:41;;;;;;;;;51.20;45.80;;;;;4.84;65.77;100379.97;5095459;28;8850;-60
2023/04/10 04:05:08;;;;;;;;;13.60;13.00;;;;;4.82;66.35;100373.94;5095427;28;8906;-59
2023/04/10 04:07:36;;;;;;;;;35.40;32.20;;;;;4.80;65.72;100370.53;5095760;28;8822;-61
2023/04/10 04:10:04;;;;;;;;;41.20;36.40;;;;;4.76;66.30;100376.88;5095525;28;8818;-58
2023/04/10 04:12:31;;;;;;;;;44.40;39.40;;;;;4.76;65.94;100368.94;5097349;28;8826;-58
2023/04/10 04:14:59;;;;;;;;;39.80;37.80;;;;;4.73;66.13;100366.47;5099351;28;8870;-59
2023/04/10 04:17:27;;;;;;;;;41.80;36.40;;;;;4.71;65.70;100376.25;5099513;28;8836;-59
2023/04/10 04:19:55;;;;;;;;;46.60;44.00;;;;;4.72;65.90;100370.06;5099550;28;8826;-58
2023/04/10 04:22:23;;;;;;;;;38.40;34.80;;;;;4.71;66.42;100365.72;5099291;28;8831;-60
2023/04/10 04:24:51;;;;;;;;;44.20;39.80;;;;;4.72;66.09;100365.63;5099167;28;8841;-59
2023/04/10 04:27:20;;;;;;;;;51.00;45.20;;;;;4.73;66.61;100362.03;5099485;28;8833;-59
2023/04/10 04:29:48;;;;;;;;;46.20;40.60;;;;;4.74;65.86;100357.63;5078890;28;8832;-60
2023/04/10 04:32:15;;;;;;;;;49.60;45.20;;;;;4.73;66.20;100366.47;5078764;28;8832;-61
2023/04/10 04:34:44;;;;;;;;;45.20;43.00;;;;;4.72;65.85;100365.63;5078917;28;8840;-61
2023/04/10 04:37:11;;;;;;;;;42.60;41.20;;;;;4.70;66.23;100358.69;5078493;28;8808;-60
2023/04/10 04:39:40;;;;;;;;;31.80;30.20;;;;;4.69;66.00;100360.50;5078714;28;8816;-61
2023/04/10 04:42:07;;;;;;;;;31.80;27.80;;;;;4.68;65.90;100355.28;5079276;28;8831;-59
2023/04/10 04:44:35;;;;;;;;;36.00;32.20;;;;;4.67;66.58;100358.88;5078974;28;8824;-58
2023/04/10 04:47:03;;;;;;;;;42.00;34.00;;;;;4.67;66.29;100356.22;5078675;28;8844;-58
2023/04/10 04:49:30;;;;;;;;;34.00;29.20;;;;;4.67;66.55;100357.09;5079143;28;9513;-57
2023/04/10 04:51:58;;;;;;;;;36.60;30.20;;;;;4.69;66.03;100357.88;5078375;28;8843;-58
2023/04/10 04:54:26;;;;;;;;;38.20;33.80;;;;;4.71;66.67;100349.88;5078521;28;8827;-63
2023/04/10 04:56:53;;;;;;;;;35.00;34.40;;;;;4.74;66.67;100355.00;5078732;28;8942;-59
2023/04/10 04:59:21;;;;;;;;;31.20;31.20;;;;;4.77;66.41;100352.19;5094686;28;8833;-59
2023/04/10 05:01:49;;;;;;;;;34.00;30.40;;;;;4.80;65.79;100347.63;5098492;28;8841;-61
2023/04/10 05:04:17;;;;;;;;;23.20;20.40;;;;;4.83;65.92;100338.72;5098644;28;8832;-60
2023/04/10 05:06:45;;;;;;;;;29.20;27.20;;;;;4.87;66.40;100343.75;5098562;28;8822;-60
2023/04/10 05:09:12;;;;;;;;;36.40;33.20;;;;;4.88;66.19;100344.63;5098374;28;8830;-60
2023/04/10 05:11:40;;;;;;;;;38.40;35.40;;;;;4.89;66.31;100341.03;5098571;28;8818;-60
2023/04/10 05:14:08;;;;;;;;;37.40;35.80;;;;;4.90;65.77;100340.09;5098116;28;8822;-58
2023/04/10 05:16:35;;;;;;;;;37.40;32.40;;;;;4.90;65.99;100338.34;5097965;28;9529;-58
2023/04/10 05:19:03;;;;;;;;;42.00;38.00;;;;;4.93;65.56;100338.16;5098536;28;9551;-59
2023/04/10 05:21:31;;;;;;;;;31.40;29.20;;;;;4.97;65.98;100336.22;5098102;28;8984;-60
2023/04/10 05:24:00;;;;;;;;;39.00;35.00;;;;;5.01;65.60;100337.81;5097103;28;8821;-59
2023/04/10 05:26:28;;;;;;;;;34.20;28.80;;;;;5.06;65.70;100335.75;5098200;28;9483;-60
2023/04/10 05:28:55;;;;;;;;;28.40;27.60;;;;;5.13;65.68;100334.50;5097851;28;8821;-58
2023/04/10 05:31:23;;;;;;;;;32.20;31.00;;;;;5.17;65.20;100336.91;5097778;28;8957;-59
2023/04/10 05:33:50;;;;;;;;;34.40;30.80;;;;;5.28;65.00;100336.38;5097636;28;8830;-58
2023/04/10 05:36:19;;;;;;;;;27.80;21.60;;;;;5.41;65.16;100329.53;5097798;28;8830;-58
2023/04/10 05:38:46;;;;;;;;;33.40;31.00;;;;;5.53;64.61;100331.53;5098081;28;8826;-58
2023/04/10 05:41:14;;;;;;;;;25.40;24.80;;;;;5.67;65.22;100331.63;5097791;28;8821;-60
2023/04/10 05:43:42;;;;;;;;;29.00;26.40;;;;;5.81;64.23;100326.47;5098111;28;8839;-58
2023/04/10 05:46:10;;;;;;;;;32.00;29.20;;;;;5.96;64.37;100333.59;5098016;28;9617;-58
2023/04/10 05:48:38;;;;;;;;;21.40;21.40;;;;;6.06;64.16;100332.16;5097693;28;8829;-58
2023/04/10 05:51:06;;;;;;;;;16.40;15.80;;;;;6.18;63.96;100327.03;5098065;28;8837;-60
2023/04/10 05:53:34;;;;;;;;;30.60;28.00;;;;;6.31;63.64;100322.75;5097619;28;8841;-57
2023/04/10 05:56:01;;;;;;;;;26.80;25.40;;;;;6.44;63.42;100322.94;5097250;28;8823;-59
2023/04/10 05:58:29;;;;;;;;;21.20;18.80;;;;;6.52;63.50;100315.41;5096996;28;8814;-60
2023/04/10 06:00:57;;;;;;;;;28.40;27.80;;;;;6.59;63.18;100330.84;5097580;28;8846;-58
2023/04/10 06:03:26;;;;;;;;;22.00;18.60;;;;;6.65;63.45;100316.41;5097345;28;8822;-57
2023/04/10 06:05:54;;;;;;;;;24.40;21.80;;;;;6.69;63.34;100315.28;5097334;28;8822;-58
2023/04/10 06:08:22;;;;;;;;;24.80;21.60;;;;;6.73;62.80;100316.81;5096133;28;8806;-57
2023/04/10 06:10:50;;;;;;;;;28.00;26.60;;;;;6.75;63.06;100314.94;5096855;28;8848;-58
2023/04/10 06:13:18;;;;;;;;;23.20;21.40;;;;;6.80;63.25;100323.44;5096857;28;8826;-59
2023/04/10 06:15:46;;;;;;;;;25.80;22.80;;;;;6.82;62.99;100319.78;5096900;28;8830;-58
2023/04/10 06:18:13;;;;;;;;;22.40;22.00;;;;;6.88;63.14;100321.19;5096742;28;8822;-57
2023/04/10 06:20:41;;;;;;;;;22.00;21.00;;;;;6.94;62.76;100321.72;5096968;28;8903;-58
2023/04/10 06:23:09;;;;;;;;;25.80;22.80;;;;;7.02;62.96;100315.94;5096785;28;8846;-59
2023/04/10 06:25:37;;;;;;;;;26.40;24.20;;;;;7.11;62.88;100318.03;5096463;28;8838;-59
2023/04/10 06:28:04;;;;;;;;;20.40;18.00;;;;;7.21;62.73;100308.63;5096481;28;8852;-59
2023/04/10 06:30:33;;;;;;;;;15.80;14.80;;;;;7.33;62.54;100306.09;5096545;28;8850;-58
2023/04/10 06:33:01;;;;;;;;;18.40;16.40;;;;;7.52;62.20;100303.19;5096850;28;8825;-59
2023/04/10 06:35:28;;;;;;;;;24.20;22.00;;;;;7.81;61.46;100295.09;5096702;28;8841;-58
2023/04/10 06:37:57;;;;;;;;;21.80;21.00;;;;;8.00;61.14;100291.19;5096319;28;8956;-61
2023/04/10 06:40:24;;;;;;;;;25.80;22.80;;;;;8.19;61.11;100293.56;5095264;28;8866;-58
2023/04/10 06:42:52;;;;;;;;;24.80;22.00;;;;;8.38;60.81;100294.91;5095897;28;8868;-58
2023/04/10 06:45:20;;;;;;;;;19.80;19.40;;;;;8.59;60.60;100298.00;5095561;28;9519;-58
2023/04/10 06:47:47;;;;;;;;;18.40;16.00;;;;;8.81;59.97;100296.47;5095716;28;8822;-58
2023/04/10 06:50:17;;;;;;;;;25.40;19.00;;;;;9.04;59.97;100306.38;5095872;28;8830;-59
2023/04/10 06:52:45;;;;;;;;;22.40;18.00;;;;;9.29;59.38;100303.78;5096294;28;8826;-58
2023/04/10 06:55:12;;;;;;;;;20.00;18.60;;;;;9.53;59.51;100291.44;5096518;28;8826;-59
2023/04/10 06:57:40;;;;;;;;;18.80;18.80;;;;;9.76;58.67;100288.03;5096419;28;8846;-58
2023/04/10 07:00:08;;;;;;;;;14.00;12.25;;;;;10.00;58.61;100288.94;5096116;28;8845;-58
2023/04/10 07:02:36;;;;;;;;;11.00;9.50;;;;;10.29;58.30;100273.53;5095476;28;8810;-59
2023/04/10 07:05:06;;;;;;;;;10.50;10.50;;;;;10.61;57.24;100277.38;5095577;28;8806;-59
2023/04/10 07:07:33;;;;;;;;;6.50;6.25;;;;;11.00;56.92;100279.69;5096482;28;9550;-59
2023/04/10 07:10:01;;;;;;;;;7.50;7.50;;;;;11.50;55.92;100272.16;5095966;28;8838;-58
2023/04/10 07:12:29;;;;;;;;;6.00;6.00;;;;;11.87;55.00;100272.78;5095914;28;8826;-58
2023/04/10 07:14:57;;;;;;;;;11.50;10.00;;;;;12.01;55.00;100270.75;5095627;28;8814;-59
2023/04/10 07:17:25;;;;;;;;;11.25;9.75;;;;;12.07;54.67;100270.25;5095846;28;8842;-59
2023/04/10 07:19:52;;;;;;;;;8.00;8.00;;;;;12.11;54.63;100277.03;5096005;28;8818;-58
2023/04/10 07:22:20;;;;;;;;;6.50;6.00;;;;;12.17;55.01;100266.69;5095439;28;9256;-58
2023/04/10 07:24:48;;;;;;;;;7.00;7.00;;;;;12.27;54.38;100250.78;5095684;28;8932;-58
2023/04/10 07:27:16;;;;;;;;;8.25;7.00;;;;;12.41;54.04;100259.38;5095850;28;8810;-59
2023/04/10 07:29:44;;;;;;;;;9.50;9.50;;;;;12.57;53.07;100264.28;5095773;28;8834;-59
2023/04/10 07:32:12;;;;;;;;;7.00;6.75;;;;;12.72;53.23;100260.34;5096167;28;9554;-58
2023/04/10 07:34:40;;;;;;;;;9.00;7.50;;;;;12.88;53.09;100258.06;5095992;28;8834;-58
2023/04/10 07:37:08;;;;;;;;;8.00;8.00;;;;;13.03;51.90;100241.63;5095696;28;8826;-59
2023/04/10 07:39:36;;;;;;;;;7.75;7.75;;;;;13.20;52.13;100250.91;5096059;28;8837;-60
2023/04/10 07:42:04;;;;;;;;;4.50;3.25;;;;;13.36;51.32;100249.44;5096293;28;8830;-59
2023/04/10 07:44:32;;;;;;;;;7.50;7.00;;;;;13.51;51.68;100249.97;5095511;28;8850;-59
2023/04/10 07:47:00;;;;;;;;;5.25;4.50;;;;;13.60;50.74;100247.31;5097057;28;8810;-58
2023/04/10 07:49:27;;;;;;;;;8.00;6.75;;;;;13.69;50.88;100243.84;5099868;28;8849;-59
2023/04/10 07:51:55;;;;;;;;;7.50;6.25;;;;;13.76;50.15;100238.81;5099734;28;8822;-59
2023/04/10 07:54:23;;;;;;;;;6.50;6.00;;;;;13.85;49.64;100229.94;5099847;28;8852;-59
2023/04/10 07:56:51;;;;;;;;;9.00;7.00;;;;;13.97;49.26;100234.25;5099387;28;8833;-59
2023/04/10 07:59:19;;;;;;;;;9.00;8.50;;;;;14.14;49.22;100217.50;5099562;28;8829;-58
2023/04/10 08:01:47;;;;;;;;;9.50;9.25;;;;;14.30;48.15;100221.38;5099353;28;8926;-59
2023/04/10 08:04:16;;;;;;;;;8.00;8.00;;;;;14.40;48.55;100205.28;5099841;28;8822;-60
2023/04/10 08:06:44;;;;;;;;;8.50;7.00;;;;;14.46;48.17;100200.25;5099274;28;8872;-59
2023/04/10 08:09:12;;;;;;;;;6.25;4.50;;;;;14.46;48.37;100194.88;5099618;28;8856;-61
2023/04/10 08:11:40;;;;;;;;;7.25;5.50;;;;;14.46;47.66;100188.66;5102780;28;8837;-59
2023/04/10 08:14:09;;;;;;;;;6.50;6.25;;;;;14.52;47.79;100182.75;5101601;28;8971;-61
2023/04/10 08:16:38;;;;;;;;;9.00;7.00;;;;;14.60;47.26;100172.16;5100383;28;8850;-60
2023/04/10 08:19:07;;;;;;;;;9.25;9.00;;;;;14.74;46.88;100161.00;5098457;28;8936;-59
2023/04/10 08:21:34;;;;;;;;;6.50;6.50;;;;;14.86;46.99;100174.13;5098958;28;8850;-61
2023/04/10 08:24:02;;;;;;;;;6.50;6.00;;;;;14.94;46.45;100165.38;5099059;28;8903;-61
2023/04/10 08:26:30;;;;;;;;;4.00;4.00;;;;;14.99;46.06;100168.44;5099134;28;8830;-59
2023/04/10 08:28:59;;;;;;;;;7.75;6.75;;;;;14.97;45.92;100163.25;5097723;28;8856;-58
2023/04/10 08:31:27;;;;;;;;;6.00;5.00;;;;;14.94;45.55;100162.69;5098816;28;8830;-58
2023/04/10 08:33:55;;;;;;;;;7.00;6.50;;;;;14.95;44.67;100167.06;5098624;28;8822;-59
2023/04/10 08:36:24;;;;;;;;;3.50;3.00;;;;;14.91;44.65;100154.91;5098647;28;8837;-60
2023/04/10 08:38:51;;;;;;;;;9.25;8.00;;;;;14.78;44.81;100157.91;5098698;28;8926;-61
2023/04/10 08:41:24;;;;;;;;;7.00;7.00;;;;;14.68;45.00;100153.53;5098211;28;8871;-60
2023/04/10 08:43:52;;;;;;;;;9.25;7.00;;;;;14.63;45.41;100148.59;5100361;28;8856;-59
2023/04/10 08:46:22;;;;;;;;;6.00;6.00;;;;;14.67;45.01;100144.66;5102376;28;8956;-61
2023/04/10 08:48:51;;;;;;;;;6.75;6.25;;;;;14.78;45.07;100157.03;5101716;28;9047;-60
2023/04/10 08:51:20;;;;;;;;;8.00;6.50;;;;;14.88;44.99;100150.66;5100856;28;8844;-58
2023/04/10 08:53:54;;;;;;;;;6.50;6.25;;;;;15.00;43.83;100141.47;5100623;28;8822;-61
2023/04/10 08:56:23;;;;;;;;;5.00;5.00;;;;;15.13;43.59;100135.78;5100854;28;8924;-58
2023/04/10 08:58:51;;;;;;;;;8.00;7.50;;;;;15.27;43.94;100133.50;5099654;28;8876;-59
2023/04/10 09:01:19;;;;;;;;;6.00;6.00;;;;;15.41;43.49;100129.53;5097766;28;8862;-59
2023/04/10 09:03:47;;;;;;;;;6.50;6.00;;;;;15.58;43.12;100131.41;5097343;28;8822;-59
2023/04/10 09:06:15;;;;;;;;;8.00;7.25;;;;;15.84;43.37;100137.78;5097200;28;8830;-59
2023/04/10 09:08:43;;;;;;;;;12.25;12.25;;;;;16.01;42.80;100113.59;5097531;28;8821;-61
2023/04/10 09:11:12;;;;;;;;;5.00;4.50;;;;;16.17;42.55;100129.94;5096336;28;8822;-60
2023/04/10 09:13:40;;;;;;;;;10.25;9.25;;;;;16.38;42.41;100117.88;5096641;28;8846;-60
2023/04/10 09:16:07;;;;;;;;;10.75;10.00;;;;;16.61;41.85;100113.72;5096281;28;8916;-59
2023/04/10 09:18:36;;;;;;;;;11.50;9.75;;;;;16.90;41.76;100106.19;5095739;28;8879;-60
2023/04/10 09:21:04;;;;;;;;;8.00;6.00;;;;;17.16;40.91;100100.81;5096784;28;8829;-60
2023/04/10 09:23:33;;;;;;;;;12.25;9.75;;;;;17.34;41.26;100090.81;5096417;28;8853;-59
2023/04/10 09:26:00;;;;;;;;;6.50;6.00;;;;;17.46;40.60;100078.78;5096945;28;8903;-61
2023/04/10 09:28:28;;;;;;;;;9.00;6.50;;;;;17.62;40.54;100093.13;5097521;28;8833;-61
2023/04/10 09:30:57;;;;;;;;;5.20;5.20;;;;;17.89;39.86;100076.72;5097855;28;8903;-59
2023/04/10 09:33:26;;;;;;;;;9.80;9.20;;;;;18.16;39.69;100068.38;5097643;28;8860;-59
2023/04/10 09:35:54;;;;;;;;;4.80;4.40;;;;;18.45;39.10;100070.59;5096943;28;8836;-59
2023/04/10 09:38:22;;;;;;;;;9.40;9.00;;;;;18.49;38.68;100058.44;5097290;28;8849;-60
2023/04/10 09:40:50;;;;;;;;;7.00;4.40;;;;;18.31;38.83;100057.78;5097110;28;8818;-59
2023/04/10 09:43:21;;;;;;;;;8.00;6.80;;;;;18.11;38.93;100043.75;5096958;28;8822;-61
2023/04/10 09:45:49;;;;;;;;;4.80;3.60;;;;;18.02;39.64;100055.53;5097023;28;8814;-60
2023/04/10 09:48:17;;;;;;;;;6.40;6.40;;;;;18.02;39.57;100050.16;5097070;28;8898;-59
2023/04/10 09:50:45;;;;;;;;;4.00;3.20;;;;;18.09;39.68;100051.16;5095886;28;8834;-60
2023/04/10 09:53:13;;;;;;;;;6.00;4.40;;;;;18.20;39.58;100053.53;5095785;28;8850;-60
2023/04/10 09:55:41;;;;;;;;;9.60;9.20;;;;;18.37;38.81;100049.84;5096108;28;8818;-60
2023/04/10 09:58:09;;;;;;;;;7.00;7.00;;;;;18.58;38.01;100039.38;5096413;28;8829;-60
2023/04/10 10:00:37;;;;;;;;;8.20;7.00;;;;;18.92;37.76;100037.31;5095961;28;8862;-60
2023/04/10 10:03:05;;;;;;;;;10.40;9.00;;;;;19.30;37.77;100032.97;5095213;28;8946;-60
2023/04/10 10:05:33;;;;;;;;;8.20;6.80;;;;;19.54;37.01;100028.31;5096825;28;8954;-60
2023/04/10 10:08:03;;;;;;;;;10.00;9.40;;;;;19.70;37.12;100032.78;5097155;28;8848;-61
2023/04/10 10:10:31;;;;;;;;;5.20;5.20;;;;;19.83;37.27;100038.44;5096653;28;8841;-60
2023/04/10 10:12:59;;;;;;;;;7.00;7.00;;;;;20.12;36.84;100019.69;5095660;28;8822;-60
2023/04/10 10:15:27;;;;;;;;;9.60;9.60;;;;;20.48;36.50;100028.88;5096236;28;8848;-60
2023/04/10 10:17:55;;;;;;;;;5.00;5.00;;;;;20.71;36.55;100029.66;5095881;28;8833;-60
2023/04/10 10:20:23;;;;;;;;;6.20;6.20;;;;;20.92;36.02;100021.69;5076155;28;9493;-59
2023/04/10 10:22:51;;;;;;;;;7.00;5.80;;;;;21.13;36.22;100009.06;5075647;28;8839;-60
2023/04/10 10:25:19;;;;;;;;;10.00;7.40;;;;;21.40;35.37;100003.81;5090078;28;8834;-59
2023/04/10 10:27:47;;;;;;;;;5.00;5.00;;;;;21.83;35.38;100008.31;5095128;28;8840;-59
2023/04/10 10:30:15;;;;;;;;;5.40;4.40;;;;;21.71;35.02;100000.91;5095735;28;8842;-59
2023/04/10 10:32:56;;;;;;;;;4.00;3.60;;;;;21.38;35.37;99996.91;5096092;28;8818;-59
2023/04/10 10:35:24;;;;;;;;;4.00;4.00;;;;;21.31;34.92;99999.53;5096051;28;8872;-61
2023/04/10 10:37:55;;;;;;;;;5.40;4.20;;;;;21.42;34.16;99998.22;5095497;28;8984;-58
2023/04/10 10:40:23;;;;;;;;;4.40;4.40;;;;;21.53;34.05;100000.41;5096200;28;8833;-58
2023/04/10 10:42:51;;;;;;;;;2.40;2.40;;;;;21.69;33.28;99989.38;5096736;28;8826;-59
2023/04/10 10:45:19;;;;;;;;;4.80;4.80;;;;;21.76;33.38;99976.72;5095221;28;8829;-59
2023/04/10 10:47:47;;;;;;;;;4.60;4.20;;;;;21.67;33.77;99969.75;5094702;28;8826;-59
2023/04/10 10:50:16;;;;;;;;;5.60;4.00;;;;;21.35;33.19;99965.59;5094957;28;8911;-59
2023/04/10 10:52:44;;;;;;;;;4.00;4.00;;;;;20.94;33.67;99969.00;5095856;28;8802;-58
2023/04/10 10:55:12;;;;;;;;;2.00;1.80;;;;;20.40;33.93;99962.13;5095461;28;8802;-59
2023/04/10 10:57:40;;;;;;;;;5.40;4.40;;;;;19.94;34.49;99963.19;5095514;28;8865;-59
2023/04/10 11:00:08;;;;;;;;;4.20;4.00;;;;;19.62;34.91;99965.28;5095309;28;8838;-59
2023/04/10 11:02:35;;;;;;;;;4.40;4.40;;;;;19.37;34.67;99955.63;5094526;28;9507;-60
2023/04/10 11:05:03;;;;;;;;;2.20;2.20;;;;;19.41;34.76;99946.19;5095000;28;8814;-59
2023/04/10 11:07:31;;;;;;;;;3.20;3.20;;;;;19.68;34.79;99941.09;5094867;28;8845;-60
2023/04/10 11:09:59;;;;;;;;;4.80;4.80;;;;;19.85;33.96;99941.78;5094190;28;8972;-60
2023/04/10 11:12:28;;;;;;;;;4.00;4.00;;;;;20.14;34.21;99934.66;5086385;28;8826;-58
2023/04/10 11:14:55;;;;;;;;;4.40;4.40;;;;;20.39;33.45;99930.69;5094927;28;8907;-60
2023/04/10 11:17:24;;;;;;;;;2.80;2.80;;;;;20.58;33.58;99927.44;5095073;28;9569;-61
2023/04/10 11:19:52;;;;;;;;;2.40;2.40;;;;;20.55;33.29;99918.88;5094717;28;8833;-61
2023/04/10 11:22:20;;;;;;;;;3.60;2.80;;;;;20.43;33.21;99915.78;5093925;28;8825;-61
2023/04/10 11:24:48;;;;;;;;;1.20;1.20;;;;;20.36;33.66;99914.84;5094980;28;9503;-60
2023/04/10 11:27:16;;;;;;;;;2.00;2.00;;;;;20.29;33.47;99899.50;5094685;28;8829;-60
2023/04/10 11:29:43;;;;;;;;;4.00;3.60;;;;;20.32;33.75;99910.81;5094563;28;8850;-61
2023/04/10 11:32:12;;;;;;;;;3.80;2.80;;;;;20.44;32.93;99890.41;5094576;28;8845;-61